createdAt,value
2022-12-05T00:00:35.147Z,0.00
2022-12-05T00:01:35.263Z,0.00
2022-12-05T00:02:35.191Z,0.00
2022-12-05T00:03:35.114Z,0.00
2022-12-05T00:04:35.196Z,0.00
2022-12-05T00:05:35.142Z,0.00
2022-12-05T00:06:35.259Z,0.00
2022-12-05T00:07:35.153Z,0.00
2022-12-05T00:08:35.082Z,0.00
2022-12-05T00:09:35.073Z,0.00
2022-12-05T00:10:35.047Z,0.00
2022-12-05T00:11:35.067Z,0.00
2022-12-05T00:12:35.062Z,0.00
2022-12-05T00:13:35.057Z,0.00
2022-12-05T00:14:35.040Z,0.00
2022-12-05T00:15:35.064Z,0.00
2022-12-05T00:16:35.051Z,0.00
2022-12-05T00:17:35.056Z,0.00
2022-12-05T00:18:35.012Z,0.00
2022-12-05T00:19:35.018Z,0.00
2022-12-05T00:20:35.022Z,0.00
2022-12-05T00:21:34.987Z,0.00
2022-12-05T00:22:35.019Z,0.00
2022-12-05T00:23:35.028Z,0.00
2022-12-05T00:24:34.977Z,0.00
2022-12-05T00:25:34.992Z,0.00
2022-12-05T00:26:34.966Z,0.00
2022-12-05T00:27:34.996Z,0.00
2022-12-05T00:28:34.970Z,0.00
2022-12-05T00:29:34.971Z,0.00
2022-12-05T00:30:34.929Z,0.00
2022-12-05T00:31:34.984Z,0.00
2022-12-05T00:32:34.913Z,0.00
2022-12-05T00:33:34.896Z,0.00
2022-12-05T00:34:34.926Z,0.00
2022-12-05T00:35:34.899Z,0.00
2022-12-05T00:36:34.884Z,0.00
2022-12-05T00:37:34.915Z,0.00
2022-12-05T00:38:34.917Z,0.00
2022-12-05T00:39:34.905Z,0.00
2022-12-05T00:40:34.874Z,0.00
2022-12-05T00:41:34.870Z,0.00
2022-12-05T00:42:34.863Z,0.00
2022-12-05T00:43:34.866Z,0.00
2022-12-05T00:44:34.889Z,0.00
2022-12-05T00:45:34.898Z,0.00
2022-12-05T00:46:34.987Z,0.00
2022-12-05T00:47:34.968Z,0.00
2022-12-05T00:48:34.818Z,0.00
2022-12-05T00:49:34.819Z,0.00
2022-12-05T00:50:34.810Z,0.00
2022-12-05T00:51:34.824Z,0.00
2022-12-05T00:52:34.792Z,0.00
2022-12-05T00:53:34.778Z,0.00
2022-12-05T00:54:34.772Z,0.00
2022-12-05T00:55:34.765Z,0.00
2022-12-05T00:56:34.793Z,0.00
2022-12-05T00:57:34.765Z,0.00
2022-12-05T00:58:34.742Z,0.00
2022-12-05T00:59:35.748Z,0.00
2022-12-05T01:00:34.748Z,0.00
2022-12-05T01:01:34.844Z,0.00
2022-12-05T01:02:34.747Z,0.00
2022-12-05T01:03:34.776Z,0.00
2022-12-05T01:04:34.730Z,0.00
2022-12-05T01:05:34.689Z,0.00
2022-12-05T01:06:34.723Z,0.00
2022-12-05T01:07:34.721Z,0.00
2022-12-05T01:08:34.689Z,0.00
2022-12-05T01:09:34.676Z,0.00
2022-12-05T01:10:34.682Z,0.00
2022-12-05T01:11:40.749Z,0.00
2022-12-05T01:12:36.705Z,0.00
2022-12-05T01:13:34.654Z,0.00
2022-12-05T01:14:34.662Z,0.00
2022-12-05T01:15:34.643Z,0.00
2022-12-05T01:16:34.683Z,0.00
2022-12-05T01:17:34.663Z,0.00
2022-12-05T01:18:34.617Z,0.00
2022-12-05T01:19:34.642Z,0.00
2022-12-05T01:20:34.621Z,0.00
2022-12-05T01:21:34.612Z,0.00
2022-12-05T01:22:34.620Z,0.00
2022-12-05T01:23:34.584Z,0.00
2022-12-05T01:24:34.574Z,0.00
2022-12-05T01:25:34.579Z,0.00
2022-12-05T01:26:34.564Z,0.00
2022-12-05T01:27:34.593Z,0.00
2022-12-05T01:28:34.599Z,0.00
2022-12-05T01:29:34.542Z,0.00
2022-12-05T01:30:34.558Z,0.00
2022-12-05T01:31:34.624Z,0.00
2022-12-05T01:32:34.560Z,0.00
2022-12-05T01:33:34.520Z,0.00
2022-12-05T01:34:34.518Z,0.00
2022-12-05T01:35:34.531Z,0.00
2022-12-05T01:36:34.492Z,0.00
2022-12-05T01:37:34.478Z,0.00
2022-12-05T01:38:34.544Z,0.00
2022-12-05T01:39:34.503Z,0.00
2022-12-05T01:40:34.468Z,0.00
2022-12-05T01:41:34.459Z,0.00
2022-12-05T01:42:34.452Z,0.00
2022-12-05T01:43:34.487Z,0.00
2022-12-05T01:44:34.441Z,0.00
2022-12-05T01:45:34.546Z,0.00
2022-12-05T01:46:34.444Z,0.00
2022-12-05T01:47:34.438Z,0.00
2022-12-05T01:48:34.438Z,0.00
2022-12-05T01:49:34.451Z,0.00
2022-12-05T01:50:34.467Z,0.00
2022-12-05T01:51:34.437Z,0.00
2022-12-05T01:52:34.497Z,0.00
2022-12-05T01:53:34.384Z,0.00
2022-12-05T01:54:34.376Z,0.00
2022-12-05T01:55:34.409Z,0.00
2022-12-05T01:56:34.368Z,0.00
2022-12-05T01:57:34.358Z,0.00
2022-12-05T01:58:34.358Z,0.00
2022-12-05T01:59:34.372Z,0.00
2022-12-05T02:00:34.391Z,0.00
2022-12-05T02:01:34.495Z,0.00
2022-12-05T02:02:34.390Z,0.00
2022-12-05T02:03:34.330Z,0.00
2022-12-05T02:04:34.318Z,0.00
2022-12-05T02:05:34.331Z,0.00
2022-12-05T02:06:34.316Z,0.00
2022-12-05T02:07:34.357Z,0.00
2022-12-05T02:08:34.293Z,0.00
2022-12-05T02:09:34.269Z,0.00
2022-12-05T02:10:34.269Z,0.00
2022-12-05T02:11:34.303Z,0.00
2022-12-05T02:12:34.292Z,0.00
2022-12-05T02:13:34.280Z,0.00
2022-12-05T02:14:34.268Z,0.00
2022-12-05T02:15:34.247Z,0.00
2022-12-05T02:16:34.272Z,0.00
2022-12-05T02:17:34.274Z,0.00
2022-12-05T02:18:34.210Z,0.00
2022-12-05T02:19:34.214Z,0.00
2022-12-05T02:20:34.203Z,0.00
2022-12-05T02:21:34.184Z,0.00
2022-12-05T02:22:34.235Z,0.00
2022-12-05T02:23:34.181Z,0.00
2022-12-05T02:24:34.215Z,0.00
2022-12-05T02:25:34.190Z,0.00
2022-12-05T02:26:34.168Z,0.00
2022-12-05T02:27:34.163Z,0.00
2022-12-05T02:28:34.210Z,0.00
2022-12-05T02:29:34.187Z,0.00
2022-12-05T02:30:34.149Z,0.00
2022-12-05T02:31:34.328Z,0.00
2022-12-05T02:32:34.149Z,0.00
2022-12-05T02:33:34.148Z,0.00
2022-12-05T02:34:34.117Z,0.00
2022-12-05T02:35:34.126Z,0.00
2022-12-05T02:36:34.118Z,0.00
2022-12-05T02:37:34.121Z,0.00
2022-12-05T02:38:34.079Z,0.00
2022-12-05T02:39:34.141Z,0.00
2022-12-05T02:40:34.080Z,0.00
2022-12-05T02:41:34.072Z,0.00
2022-12-05T02:42:34.070Z,0.00
2022-12-05T02:43:34.059Z,0.00
2022-12-05T02:44:34.082Z,0.00
2022-12-05T02:45:34.100Z,0.00
2022-12-05T02:46:34.277Z,0.00
2022-12-05T02:47:34.046Z,0.00
2022-12-05T02:48:34.027Z,0.00
2022-12-05T02:49:34.010Z,0.00
2022-12-05T02:50:34.049Z,0.00
2022-12-05T02:51:34.002Z,0.00
2022-12-05T02:52:34.026Z,0.00
2022-12-05T02:53:33.987Z,0.00
2022-12-05T02:54:33.998Z,0.00
2022-12-05T02:55:34.012Z,0.00
2022-12-05T02:56:34.004Z,0.00
2022-12-05T02:57:34.020Z,0.00
2022-12-05T02:58:33.981Z,0.00
2022-12-05T02:59:34.008Z,0.00
2022-12-05T03:00:33.965Z,0.00
2022-12-05T03:01:35.042Z,0.00
2022-12-05T03:02:33.927Z,0.00
2022-12-05T03:03:33.926Z,0.00
2022-12-05T03:04:33.978Z,0.00
2022-12-05T03:05:33.967Z,0.00
2022-12-05T03:06:33.933Z,0.00
2022-12-05T03:07:33.948Z,0.00
2022-12-05T03:08:33.896Z,0.00
2022-12-05T03:09:33.896Z,0.00
2022-12-05T03:10:33.882Z,0.00
2022-12-05T03:11:33.899Z,0.00
2022-12-05T03:12:33.855Z,0.00
2022-12-05T03:13:33.869Z,0.00
2022-12-05T03:14:33.869Z,0.00
2022-12-05T03:15:33.857Z,0.00
2022-12-05T03:16:33.903Z,0.00
2022-12-05T03:17:33.839Z,0.00
2022-12-05T03:18:33.858Z,0.00
2022-12-05T03:19:33.847Z,0.00
2022-12-05T03:20:33.808Z,0.00
2022-12-05T03:21:33.816Z,0.00
2022-12-05T03:22:33.813Z,0.00
2022-12-05T03:23:33.803Z,0.00
2022-12-05T03:24:33.800Z,0.00
2022-12-05T03:25:33.791Z,0.00
2022-12-05T03:26:33.774Z,0.00
2022-12-05T03:27:33.761Z,0.00
2022-12-05T03:28:33.767Z,0.00
2022-12-05T03:29:33.771Z,0.00
2022-12-05T03:30:33.760Z,0.00
2022-12-05T03:31:34.748Z,0.00
2022-12-05T03:32:33.748Z,0.00
2022-12-05T03:33:33.734Z,0.00
2022-12-05T03:34:33.726Z,0.00
2022-12-05T03:35:33.719Z,0.00
2022-12-05T03:36:33.698Z,0.00
2022-12-05T03:37:33.700Z,0.00
2022-12-05T03:38:33.718Z,0.00
2022-12-05T03:39:33.685Z,0.00
2022-12-05T03:40:33.683Z,0.00
2022-12-05T03:41:33.667Z,0.00
2022-12-05T03:42:33.658Z,0.00
2022-12-05T03:43:33.655Z,0.00
2022-12-05T03:44:33.672Z,0.00
2022-12-05T03:45:33.648Z,0.00
2022-12-05T03:46:33.747Z,0.00
2022-12-05T03:47:33.640Z,0.00
2022-12-05T03:48:33.631Z,0.00
2022-12-05T03:49:34.285Z,0.00
2022-12-05T03:50:34.652Z,0.00
2022-12-05T03:51:33.623Z,0.00
2022-12-05T03:52:50.946Z,0.00
2022-12-05T03:53:35.615Z,0.00
2022-12-05T03:54:33.640Z,0.00
2022-12-05T03:55:33.688Z,0.00
2022-12-05T03:56:33.574Z,0.00
2022-12-05T03:57:33.573Z,0.00
2022-12-05T03:58:33.643Z,0.00
2022-12-05T03:59:33.592Z,0.00
2022-12-05T04:00:33.592Z,0.00
2022-12-05T04:01:33.598Z,0.00
2022-12-05T04:02:33.534Z,0.00
2022-12-05T04:03:33.664Z,0.00
2022-12-05T04:04:33.630Z,0.00
2022-12-05T04:05:33.677Z,0.00
2022-12-05T04:06:33.684Z,0.00
2022-12-05T04:07:33.639Z,0.00
2022-12-05T04:08:33.589Z,0.00
2022-12-05T04:09:33.642Z,0.00
2022-12-05T04:10:33.599Z,0.00
2022-12-05T04:11:33.646Z,0.00
2022-12-05T04:12:33.552Z,0.00
2022-12-05T04:13:33.648Z,0.00
2022-12-05T04:14:33.709Z,0.00
2022-12-05T04:15:33.589Z,0.00
2022-12-05T04:16:33.553Z,0.00
2022-12-05T04:17:33.489Z,0.00
2022-12-05T04:18:33.474Z,0.00
2022-12-05T04:19:33.471Z,0.00
2022-12-05T04:20:33.435Z,0.00
2022-12-05T04:21:33.434Z,0.00
2022-12-05T04:22:33.445Z,0.00
2022-12-05T04:23:33.404Z,0.00
2022-12-05T04:24:33.397Z,0.00
2022-12-05T04:25:33.403Z,0.00
2022-12-05T04:26:33.500Z,0.00
2022-12-05T04:27:33.467Z,0.00
2022-12-05T04:28:34.373Z,0.00
2022-12-05T04:29:33.369Z,0.00
2022-12-05T04:30:33.381Z,0.00
2022-12-05T04:31:33.406Z,0.00
2022-12-05T04:32:33.358Z,0.00
2022-12-05T04:33:33.342Z,0.00
2022-12-05T04:34:33.331Z,0.00
2022-12-05T04:35:33.398Z,0.00
2022-12-05T04:36:33.317Z,0.00
2022-12-05T04:37:33.314Z,0.00
2022-12-05T04:38:33.437Z,0.00
2022-12-05T04:39:33.315Z,0.00
2022-12-05T04:40:33.316Z,0.00
2022-12-05T04:41:33.325Z,0.00
2022-12-05T04:42:33.284Z,0.00
2022-12-05T04:43:33.288Z,0.00
2022-12-05T04:44:33.298Z,0.00
2022-12-05T04:45:33.287Z,0.00
2022-12-05T04:46:33.332Z,0.00
2022-12-05T04:47:33.282Z,0.00
2022-12-05T04:48:33.289Z,0.00
2022-12-05T04:49:33.247Z,0.00
2022-12-05T04:50:33.255Z,0.00
2022-12-05T04:51:33.229Z,0.00
2022-12-05T04:52:33.225Z,0.00
2022-12-05T04:53:33.225Z,0.00
2022-12-05T04:54:33.222Z,0.00
2022-12-05T04:55:33.247Z,0.00
2022-12-05T04:56:33.232Z,0.00
2022-12-05T04:57:33.191Z,0.00
2022-12-05T04:58:33.209Z,0.00
2022-12-05T04:59:33.193Z,0.00
2022-12-05T05:00:33.167Z,0.00
2022-12-05T05:01:33.270Z,0.00
2022-12-05T05:02:33.214Z,0.00
2022-12-05T05:03:33.174Z,0.00
2022-12-05T05:04:33.159Z,0.00
2022-12-05T05:05:33.146Z,0.00
2022-12-05T05:06:33.124Z,0.00
2022-12-05T05:07:33.198Z,0.00
2022-12-05T05:08:33.139Z,0.00
2022-12-05T05:09:33.126Z,0.00
2022-12-05T05:10:33.109Z,0.00
2022-12-05T05:11:33.139Z,0.00
2022-12-05T05:12:33.095Z,0.00
2022-12-05T05:13:33.114Z,0.00
2022-12-05T05:14:33.171Z,0.00
2022-12-05T05:15:33.084Z,0.00
2022-12-05T05:16:33.161Z,0.00
2022-12-05T05:17:33.082Z,0.00
2022-12-05T05:18:33.080Z,0.00
2022-12-05T05:19:33.093Z,0.00
2022-12-05T05:20:33.060Z,0.00
2022-12-05T05:21:33.034Z,0.00
2022-12-05T05:22:33.067Z,0.00
2022-12-05T05:23:33.069Z,0.00
2022-12-05T05:24:33.012Z,0.00
2022-12-05T05:25:33.049Z,0.00
2022-12-05T05:26:32.992Z,0.00
2022-12-05T05:27:32.997Z,0.00
2022-12-05T05:28:33.010Z,0.00
2022-12-05T05:29:32.989Z,0.00
2022-12-05T05:30:32.977Z,0.00
2022-12-05T05:31:33.065Z,0.00
2022-12-05T05:32:32.962Z,0.00
2022-12-05T05:33:32.958Z,0.00
2022-12-05T05:34:32.984Z,0.00
2022-12-05T05:35:32.962Z,0.00
2022-12-05T05:36:32.979Z,0.00
2022-12-05T05:37:32.955Z,0.00
2022-12-05T05:38:32.925Z,0.00
2022-12-05T05:39:32.990Z,0.00
2022-12-05T05:40:33.007Z,0.00
2022-12-05T05:41:32.926Z,0.00
2022-12-05T05:42:33.034Z,0.00
2022-12-05T05:43:32.931Z,0.00
2022-12-05T05:44:32.912Z,0.00
2022-12-05T05:45:32.920Z,0.00
2022-12-05T05:46:32.954Z,0.00
2022-12-05T05:47:32.891Z,0.00
2022-12-05T05:48:32.898Z,0.00
2022-12-05T05:49:32.884Z,0.00
2022-12-05T05:50:32.852Z,0.00
2022-12-05T05:51:32.889Z,0.00
2022-12-05T05:52:32.876Z,0.00
2022-12-05T05:53:32.849Z,0.00
2022-12-05T05:54:32.840Z,0.00
2022-12-05T05:55:32.816Z,0.00
2022-12-05T05:56:32.837Z,0.00
2022-12-05T05:57:32.798Z,0.00
2022-12-05T05:58:32.805Z,0.00
2022-12-05T05:59:32.812Z,0.00
2022-12-05T06:00:32.798Z,0.00
2022-12-05T06:01:32.799Z,0.00
2022-12-05T06:02:32.860Z,0.00
2022-12-05T06:03:32.919Z,0.00
2022-12-05T06:04:32.789Z,0.00
2022-12-05T06:05:32.732Z,0.00
2022-12-05T06:06:32.779Z,0.00
2022-12-05T06:07:32.857Z,0.00
2022-12-05T06:08:32.726Z,0.00
2022-12-05T06:09:32.727Z,0.00
2022-12-05T06:10:32.707Z,0.00
2022-12-05T06:11:32.702Z,0.00
2022-12-05T06:12:32.750Z,0.00
2022-12-05T06:13:32.718Z,0.00
2022-12-05T06:14:32.688Z,0.00
2022-12-05T06:15:32.694Z,0.00
2022-12-05T06:16:32.789Z,0.00
2022-12-05T06:17:32.681Z,0.00
2022-12-05T06:18:32.656Z,0.00
2022-12-05T06:19:32.640Z,0.00
2022-12-05T06:20:32.674Z,0.00
2022-12-05T06:21:32.654Z,0.00
2022-12-05T06:22:32.644Z,0.00
2022-12-05T06:23:33.634Z,0.00
2022-12-05T06:24:32.615Z,0.00
2022-12-05T06:25:32.655Z,0.00
2022-12-05T06:26:32.679Z,0.00
2022-12-05T06:27:32.694Z,0.00
2022-12-05T06:28:32.590Z,0.00
2022-12-05T06:29:34.185Z,0.00
2022-12-05T06:30:33.645Z,0.00
2022-12-05T06:31:32.594Z,0.00
2022-12-05T06:32:32.604Z,0.00
2022-12-05T06:33:32.589Z,0.00
2022-12-05T06:34:32.560Z,0.00
2022-12-05T06:35:32.591Z,0.00
2022-12-05T06:36:32.542Z,0.00
2022-12-05T06:37:32.553Z,0.00
2022-12-05T06:38:32.560Z,0.00
2022-12-05T06:39:32.541Z,0.00
2022-12-05T06:40:32.541Z,0.00
2022-12-05T06:41:32.513Z,0.00
2022-12-05T06:42:32.577Z,0.00
2022-12-05T06:43:32.510Z,0.00
2022-12-05T06:44:32.524Z,0.00
2022-12-05T06:45:32.543Z,0.00
2022-12-05T06:46:32.466Z,0.00
2022-12-05T06:47:32.463Z,0.00
2022-12-05T06:48:32.497Z,0.00
2022-12-05T06:49:36.363Z,0.00
2022-12-05T06:50:34.487Z,0.00
2022-12-05T06:51:32.577Z,0.00
2022-12-05T06:52:32.471Z,0.00
2022-12-05T06:53:32.454Z,0.00
2022-12-05T06:54:32.453Z,0.00
2022-12-05T06:55:32.414Z,0.00
2022-12-05T06:56:32.410Z,0.00
2022-12-05T06:57:32.445Z,0.00
2022-12-05T06:58:32.421Z,0.00
2022-12-05T06:59:32.401Z,0.00
2022-12-05T07:00:32.402Z,0.00
2022-12-05T07:01:32.472Z,0.00
2022-12-05T07:02:32.522Z,0.00
2022-12-05T07:03:32.419Z,0.00
2022-12-05T07:04:32.394Z,0.00
2022-12-05T07:05:32.403Z,0.00
2022-12-05T07:06:32.366Z,0.00
2022-12-05T07:07:32.386Z,0.00
2022-12-05T07:08:32.379Z,0.00
2022-12-05T07:09:32.320Z,0.00
2022-12-05T07:10:32.355Z,0.00
2022-12-05T07:11:32.344Z,0.00
2022-12-05T07:12:32.351Z,0.00
2022-12-05T07:13:32.308Z,0.00
2022-12-05T07:14:46.984Z,0.00
2022-12-05T07:15:34.309Z,0.00
2022-12-05T07:16:32.345Z,0.00
2022-12-05T07:17:32.307Z,0.00
2022-12-05T07:18:32.261Z,0.00
2022-12-05T07:19:32.354Z,0.00
2022-12-05T07:20:49.512Z,5.62
2022-12-05T07:21:34.251Z,5.62
2022-12-05T07:22:32.233Z,5.62
2022-12-05T07:23:32.242Z,5.62
2022-12-05T07:24:32.265Z,5.62
2022-12-05T07:25:32.316Z,5.62
2022-12-05T07:26:32.239Z,5.62
2022-12-05T07:27:32.277Z,5.62
2022-12-05T07:28:32.207Z,5.62
2022-12-05T07:29:32.200Z,5.62
2022-12-05T07:30:32.220Z,5.62
2022-12-05T07:31:32.255Z,5.62
2022-12-05T07:32:32.215Z,5.62
2022-12-05T07:33:32.169Z,5.62
2022-12-05T07:34:32.200Z,5.62
2022-12-05T07:35:32.182Z,5.62
2022-12-05T07:36:32.168Z,5.62
2022-12-05T07:37:32.181Z,5.62
2022-12-05T07:38:32.136Z,5.62
2022-12-05T07:39:32.150Z,5.62
2022-12-05T07:40:32.140Z,5.62
2022-12-05T07:41:33.006Z,11.25
2022-12-05T07:42:32.132Z,11.25
2022-12-05T07:43:32.112Z,11.25
2022-12-05T07:44:32.086Z,11.25
2022-12-05T07:45:32.136Z,11.25
2022-12-05T07:46:32.138Z,11.25
2022-12-05T07:47:32.133Z,11.25
2022-12-05T07:48:32.067Z,11.25
2022-12-05T07:49:32.071Z,11.25
2022-12-05T07:50:32.148Z,11.25
2022-12-05T07:51:32.074Z,11.25
2022-12-05T07:52:32.075Z,11.25
2022-12-05T07:53:32.040Z,11.25
2022-12-05T07:54:32.047Z,11.25
2022-12-05T07:55:32.049Z,11.25
2022-12-05T07:56:32.093Z,11.25
2022-12-05T07:57:32.162Z,11.25
2022-12-05T07:58:32.039Z,11.25
2022-12-05T07:59:32.020Z,11.25
2022-12-05T08:00:31.997Z,11.25
2022-12-05T08:01:32.060Z,11.25
2022-12-05T08:02:32.048Z,11.25
2022-12-05T08:03:31.977Z,11.25
2022-12-05T08:04:31.977Z,11.25
2022-12-05T08:05:31.959Z,11.25
2022-12-05T08:06:31.942Z,11.25
2022-12-05T08:07:32.022Z,11.25
2022-12-05T08:08:31.969Z,16.88
2022-12-05T08:09:31.938Z,16.88
2022-12-05T08:10:31.940Z,16.88
2022-12-05T08:11:31.972Z,16.88
2022-12-05T08:12:31.916Z,16.88
2022-12-05T08:13:31.933Z,16.88
2022-12-05T08:14:31.914Z,16.88
2022-12-05T08:15:31.905Z,16.88
2022-12-05T08:16:31.983Z,16.88
2022-12-05T08:17:31.895Z,16.88
2022-12-05T08:18:31.913Z,22.50
2022-12-05T08:19:31.863Z,22.50
2022-12-05T08:20:31.913Z,22.50
2022-12-05T08:21:31.871Z,22.50
2022-12-05T08:22:31.862Z,22.50
2022-12-05T08:23:31.840Z,22.50
2022-12-05T08:24:31.871Z,22.50
2022-12-05T08:25:31.823Z,22.50
2022-12-05T08:26:31.829Z,22.50
2022-12-05T08:27:31.816Z,22.50
2022-12-05T08:28:31.865Z,22.50
2022-12-05T08:29:31.821Z,22.50
2022-12-05T08:30:31.839Z,22.50
2022-12-05T08:31:31.866Z,22.50
2022-12-05T08:32:31.889Z,28.12
2022-12-05T08:33:31.845Z,28.12
2022-12-05T08:34:31.791Z,22.50
2022-12-05T08:35:31.794Z,22.50
2022-12-05T08:36:31.762Z,22.50
2022-12-05T08:37:31.784Z,22.50
2022-12-05T08:38:31.773Z,22.50
2022-12-05T08:39:37.961Z,22.50
2022-12-05T08:40:33.736Z,22.50
2022-12-05T08:41:31.732Z,22.50
2022-12-05T08:42:31.771Z,22.50
2022-12-05T08:43:31.716Z,28.12
2022-12-05T08:44:31.733Z,28.12
2022-12-05T08:45:31.714Z,28.12
2022-12-05T08:46:31.742Z,22.50
2022-12-05T08:47:32.574Z,22.50
2022-12-05T08:48:33.938Z,22.50
2022-12-05T08:49:31.901Z,22.50
2022-12-05T08:50:31.675Z,28.12
2022-12-05T08:51:31.757Z,28.12
2022-12-05T08:52:31.807Z,28.12
2022-12-05T08:53:31.712Z,28.12
2022-12-05T08:54:31.750Z,28.12
2022-12-05T08:55:31.815Z,28.12
2022-12-05T08:56:31.915Z,33.75
2022-12-05T08:57:31.723Z,33.75
2022-12-05T08:58:31.783Z,39.38
2022-12-05T08:59:31.822Z,39.38
2022-12-05T09:00:32.303Z,39.38
2022-12-05T09:01:31.895Z,39.38
2022-12-05T09:02:31.683Z,39.38
2022-12-05T09:03:31.659Z,39.38
2022-12-05T09:04:31.664Z,45.00
2022-12-05T09:05:32.100Z,45.00
2022-12-05T09:06:31.680Z,45.00
2022-12-05T09:07:36.411Z,50.62
2022-12-05T09:08:31.605Z,45.00
2022-12-05T09:09:31.704Z,45.00
2022-12-05T09:10:31.667Z,39.38
2022-12-05T09:11:31.803Z,39.38
2022-12-05T09:12:31.633Z,33.75
2022-12-05T09:13:31.725Z,33.75
2022-12-05T09:14:31.681Z,39.38
2022-12-05T09:15:31.697Z,39.38
2022-12-05T09:16:37.018Z,39.38
2022-12-05T09:17:33.617Z,39.38
2022-12-05T09:18:31.514Z,39.38
2022-12-05T09:19:31.657Z,39.38
2022-12-05T09:20:31.552Z,45.00
2022-12-05T09:21:31.509Z,50.62
2022-12-05T09:22:31.549Z,50.62
2022-12-05T09:23:31.555Z,50.62
2022-12-05T09:24:31.519Z,45.00
2022-12-05T09:25:31.554Z,39.38
2022-12-05T09:26:31.530Z,39.38
2022-12-05T09:27:31.563Z,33.75
2022-12-05T09:28:31.483Z,28.12
2022-12-05T09:29:31.502Z,28.12
2022-12-05T09:30:31.489Z,28.12
2022-12-05T09:31:31.555Z,28.12
2022-12-05T09:32:31.439Z,33.75
2022-12-05T09:33:31.419Z,33.75
2022-12-05T09:34:31.462Z,33.75
2022-12-05T09:35:31.392Z,33.75
2022-12-05T09:36:31.433Z,39.38
2022-12-05T09:37:39.182Z,39.38
2022-12-05T09:38:33.390Z,45.00
2022-12-05T09:39:31.427Z,45.00
2022-12-05T09:40:31.407Z,45.00
2022-12-05T09:41:31.423Z,50.62
2022-12-05T09:42:31.481Z,50.62
2022-12-05T09:43:31.640Z,50.62
2022-12-05T09:44:31.511Z,50.62
2022-12-05T09:45:31.535Z,45.00
2022-12-05T09:46:35.518Z,45.00
2022-12-05T09:47:32.736Z,45.00
2022-12-05T09:48:31.618Z,45.00
2022-12-05T09:49:31.533Z,45.00
2022-12-05T09:50:31.384Z,50.62
2022-12-05T09:51:31.408Z,50.62
2022-12-05T09:52:31.438Z,50.62
2022-12-05T09:53:31.309Z,50.62
2022-12-05T09:54:31.352Z,45.00
2022-12-05T09:55:31.312Z,39.38
2022-12-05T09:56:31.272Z,33.75
2022-12-05T09:57:33.855Z,33.75
2022-12-05T09:58:32.261Z,33.75
2022-12-05T09:59:31.273Z,33.75
2022-12-05T10:00:31.255Z,33.75
2022-12-05T10:01:31.579Z,33.75
2022-12-05T10:02:31.308Z,28.12
2022-12-05T10:03:31.437Z,28.12
2022-12-05T10:04:31.278Z,28.12
2022-12-05T10:05:31.315Z,28.12
2022-12-05T10:06:31.267Z,28.12
2022-12-05T10:07:31.656Z,28.12
2022-12-05T10:08:31.295Z,22.50
2022-12-05T10:09:31.246Z,22.50
2022-12-05T10:10:31.353Z,22.50
2022-12-05T10:11:31.242Z,22.50
2022-12-05T10:12:31.179Z,22.50
2022-12-05T10:13:31.222Z,22.50
2022-12-05T10:14:31.344Z,22.50
2022-12-05T10:15:31.345Z,22.50
2022-12-05T10:16:31.244Z,22.50
2022-12-05T10:17:31.157Z,22.50
2022-12-05T10:18:31.149Z,28.12
2022-12-05T10:19:32.167Z,28.12
2022-12-05T10:20:31.243Z,28.12
2022-12-05T10:21:31.130Z,28.12
2022-12-05T10:22:31.107Z,33.75
2022-12-05T10:23:57.503Z,33.75
2022-12-05T10:24:33.159Z,33.75
2022-12-05T10:25:31.111Z,33.75
2022-12-05T10:26:31.064Z,33.75
2022-12-05T10:27:35.360Z,28.12
2022-12-05T10:28:32.111Z,28.12
2022-12-05T10:29:31.050Z,28.12
2022-12-05T10:30:31.153Z,28.12
2022-12-05T10:31:31.176Z,28.12
2022-12-05T10:32:31.071Z,28.12
2022-12-05T10:33:31.034Z,28.12
2022-12-05T10:34:31.067Z,22.50
2022-12-05T10:35:31.050Z,22.50
2022-12-05T10:36:31.188Z,22.50
2022-12-05T10:37:31.247Z,16.88
2022-12-05T10:38:31.302Z,16.88
2022-12-05T10:39:31.003Z,16.88
2022-12-05T10:40:31.004Z,16.88
2022-12-05T10:41:31.047Z,22.50
2022-12-05T10:42:31.346Z,22.50
2022-12-05T10:43:30.941Z,22.50
2022-12-05T10:44:30.975Z,28.12
2022-12-05T10:45:30.994Z,28.12
2022-12-05T10:46:31.046Z,28.12
2022-12-05T10:47:30.969Z,28.12
2022-12-05T10:48:30.950Z,28.12
2022-12-05T10:49:30.991Z,28.12
2022-12-05T10:50:30.979Z,33.75
2022-12-05T10:51:37.075Z,39.38
2022-12-05T10:52:33.124Z,39.38
2022-12-05T10:53:31.043Z,39.38
2022-12-05T10:54:31.002Z,45.00
2022-12-05T10:55:31.335Z,45.00
2022-12-05T10:56:31.229Z,39.38
2022-12-05T10:57:31.939Z,39.38
2022-12-05T10:58:30.906Z,39.38
2022-12-05T10:59:30.973Z,33.75
2022-12-05T11:00:31.043Z,39.38
2022-12-05T11:01:31.164Z,39.38
2022-12-05T11:02:31.879Z,39.38
2022-12-05T11:03:30.987Z,39.38
2022-12-05T11:04:30.942Z,39.38
2022-12-05T11:05:30.954Z,39.38
2022-12-05T11:06:30.822Z,33.75
2022-12-05T11:07:30.866Z,33.75
2022-12-05T11:09:02.439Z,28.12
2022-12-05T11:09:32.885Z,28.12
2022-12-05T11:10:30.867Z,22.50
2022-12-05T11:11:30.876Z,22.50
2022-12-05T11:12:30.833Z,22.50
2022-12-05T11:13:30.796Z,22.50
2022-12-05T11:14:30.862Z,22.50
2022-12-05T11:15:30.813Z,22.50
2022-12-05T11:16:30.875Z,22.50
2022-12-05T11:17:30.770Z,22.50
2022-12-05T11:18:31.094Z,22.50
2022-12-05T11:19:30.848Z,22.50
2022-12-05T11:20:30.771Z,22.50
2022-12-05T11:21:30.707Z,22.50
2022-12-05T11:22:30.966Z,22.50
2022-12-05T11:23:30.737Z,22.50
2022-12-05T11:24:30.710Z,22.50
2022-12-05T11:25:30.697Z,22.50
2022-12-05T11:26:31.713Z,22.50
2022-12-05T11:27:30.719Z,22.50
2022-12-05T11:28:30.680Z,22.50
2022-12-05T11:29:30.661Z,22.50
2022-12-05T11:30:30.794Z,22.50
2022-12-05T11:31:30.721Z,22.50
2022-12-05T11:32:30.652Z,22.50
2022-12-05T11:33:30.653Z,22.50
2022-12-05T11:34:30.670Z,22.50
2022-12-05T11:35:30.647Z,16.88
2022-12-05T11:36:30.631Z,16.88
2022-12-05T11:37:30.640Z,16.88
2022-12-05T11:38:30.602Z,16.88
2022-12-05T11:39:30.662Z,16.88
2022-12-05T11:40:35.229Z,16.88
2022-12-05T11:41:32.616Z,16.88
2022-12-05T11:42:30.623Z,16.88
2022-12-05T11:43:30.587Z,16.88
2022-12-05T11:44:30.699Z,11.25
2022-12-05T11:45:30.571Z,11.25
2022-12-05T11:46:30.687Z,11.25
2022-12-05T11:47:30.746Z,11.25
2022-12-05T11:48:30.566Z,11.25
2022-12-05T11:49:30.563Z,11.25
2022-12-05T11:50:30.648Z,11.25
2022-12-05T11:51:30.587Z,11.25
2022-12-05T11:52:32.033Z,11.25
2022-12-05T11:53:30.582Z,11.25
2022-12-05T11:55:03.363Z,11.25
2022-12-05T11:55:32.761Z,11.25
2022-12-05T11:56:30.834Z,11.25
2022-12-05T11:57:30.494Z,11.25
2022-12-05T11:58:30.548Z,11.25
2022-12-05T11:59:30.492Z,11.25
2022-12-05T12:00:30.513Z,5.62
2022-12-05T12:01:30.560Z,5.62
2022-12-05T12:02:30.562Z,5.62
2022-12-05T12:03:33.390Z,5.62
2022-12-05T12:04:31.601Z,5.62
2022-12-05T12:05:30.487Z,5.62
2022-12-05T12:06:30.469Z,5.62
2022-12-05T12:07:30.508Z,11.25
2022-12-05T12:08:30.572Z,11.25
2022-12-05T12:09:30.506Z,11.25
2022-12-05T12:10:30.487Z,11.25
2022-12-05T12:11:30.399Z,11.25
2022-12-05T12:12:30.455Z,11.25
2022-12-05T12:13:30.504Z,11.25
2022-12-05T12:14:30.443Z,11.25
2022-12-05T12:15:30.391Z,11.25
2022-12-05T12:16:30.557Z,11.25
2022-12-05T12:17:30.346Z,11.25
2022-12-05T12:18:30.443Z,11.25
2022-12-05T12:19:30.376Z,11.25
2022-12-05T12:20:30.527Z,11.25
2022-12-05T12:21:35.357Z,11.25
2022-12-05T12:22:32.449Z,11.25
2022-12-05T12:23:30.397Z,11.25
2022-12-05T12:24:30.504Z,11.25
2022-12-05T12:25:30.422Z,11.25
2022-12-05T12:26:30.310Z,11.25
2022-12-05T12:27:30.299Z,11.25
2022-12-05T12:28:30.478Z,11.25
2022-12-05T12:29:30.532Z,11.25
2022-12-05T12:30:30.631Z,11.25
2022-12-05T12:31:30.427Z,11.25
2022-12-05T12:32:30.567Z,11.25
2022-12-05T12:33:30.544Z,5.62
2022-12-05T12:34:30.383Z,5.62
2022-12-05T12:35:30.303Z,5.62
2022-12-05T12:36:30.500Z,5.62
2022-12-05T12:37:30.399Z,5.62
2022-12-05T12:38:30.324Z,5.62
2022-12-05T12:39:30.431Z,5.62
2022-12-05T12:40:30.327Z,5.62
2022-12-05T12:41:30.218Z,5.62
2022-12-05T12:42:30.257Z,5.62
2022-12-05T12:43:52.048Z,5.62
2022-12-05T12:44:32.175Z,5.62
2022-12-05T12:45:30.238Z,5.62
2022-12-05T12:46:30.210Z,5.62
2022-12-05T12:47:30.234Z,5.62
2022-12-05T12:48:30.179Z,5.62
2022-12-05T12:49:31.207Z,5.62
2022-12-05T12:50:30.213Z,5.62
2022-12-05T12:51:30.204Z,5.62
2022-12-05T12:52:30.201Z,5.62
2022-12-05T12:53:30.236Z,5.62
2022-12-05T12:54:55.154Z,5.62
2022-12-05T12:55:32.256Z,5.62
2022-12-05T12:56:30.136Z,5.62
2022-12-05T12:57:30.137Z,5.62
2022-12-05T12:58:30.102Z,5.62
2022-12-05T12:59:30.174Z,5.62
2022-12-05T13:00:30.190Z,5.62
2022-12-05T13:01:30.185Z,5.62
2022-12-05T13:02:30.176Z,5.62
2022-12-05T13:03:30.078Z,5.62
2022-12-05T13:04:30.169Z,5.62
2022-12-05T13:05:30.150Z,5.62
2022-12-05T13:06:30.732Z,5.62
2022-12-05T13:07:30.267Z,5.62
2022-12-05T13:08:30.106Z,5.62